Acosta, PA (15520)

11:27 AM EDT on August 01, 2015 (GMT -0400)
APRSWXNET | | Change Station
CLOSE
Current Station
Personal Weather Station
Location: Sipesville, PA
Elevation: 1970 ft
Nearby Weather Stations

Elev 1970 ft 40.12 °N, 79.10 °W | Updated 18 minutes ago

Mostly Cloudy
Mostly Cloudy
74 °F
Feels Like 76 °F
N
0
Wind Variable Wind from WNW
Gusts 6.0 mph

Today
High -- | Low -- °F
--% Chance of Precip.
Yesterday
High -- | Low -- °F
Precip. -- in
6:14 AM 8:30 PM
Full, 98% visible
Pressure 29.94 in
Visibility 10.0 miles
Clouds Scattered Clouds 2800 ft
Heat Index 76 °F
Dew Point 62 °F
Humidity 67%
Rainfall in
Snow Depth Not available.
UV 6 out of 12
Pollen 6.50 out of 12
Air Quality Not available.
Flu Activity Not available.
METAR KJST 011454Z AUTO 26007KT 10SM SCT028 22/13 A2998 RMK AO2 SLP136 T02170133 53007

More Conditions Fewer Conditions

Pressure 29.94 in
Visibility 10.0 miles
Clouds Scattered Clouds 2800 ft
Heat Index 76 °F
Dew Point 62 °F
Humidity 67%
Rainfall in
Snow Depth Not available.
UV 6 out of 12
Pollen 6.50 out of 12
Air Quality Not available.
Flu Activity Not available.
METAR KJST 011454Z AUTO 26007KT 10SM SCT028 22/13 A2998 RMK AO2 SLP136 T02170133 53007

More Conditions Fewer Conditions

10-Day Weather Forecast

×

Almanac

Astronomy

Aug. 01, 2015 Rise Set
Actual Time
Civil Twilight
Nautical Twilight
Astronomical Twilight
Moon
Length of Visible Light
Length of Day
Tomorrow will be .
, % of the Moon is Illuminated

Today's Extremes

State Highs State Lows

Community

WunderPhotos

Upload Photos

1,842,963 photos uploaded!

WunderBlogs® & News

Nearby

Air Quality

  Air Quality AQ Index Pollutant
Not available.

Snow Depth

Station Depth Elevation

Earthquake Activity

City Distance Mag. Time & Date
Minimum magnitude displayed is 2.5.

Coastal Water Temperatures

Place Temperature

Stations

Nearby Weather Stations

Station Location Temp. Windchill Dew Point Humidity Wind Precip. Elev Updated Type